Andrews AFB, Maryland
Current Conditions -  °F | °C
As of 3:58 AM on Thursday 23 Oct 2014 (Local Time) from KADW Reporting Station
Overcast Overcast  
Wind Chill: 11°   Ceiling: 3200
Heat Index: 11°   Visibility: 10mi
Dew Point:   Wind: 16mph
Humidity: 71%   Direction: 320°NW
Pressure: 29.86"   Gusts: 28mph
Location:  38.8°N, 76.87°W
Report Text: KADW 230758Z AUTO 32014G24KT 10SM OVC032 11/06 A2986 RMK AO2 SLP119 T01080057 $
Loading
Personal Weather Stations






























Interactive Weather Map
Tropical Storm Tracking
New forecast layout! Learn more

10-Day Weather Forecast

Advertisements
Track Severe Weather on mobile